Time;durP1;ratioP1;P1;durP2;ratioP2;P2;SDS_P1;SDS_P2;PMS_P1;PMS_P2;Temp;Humidity;BMP_temperature;BMP_pressure;BME280_temperature;BME280_humidity;BME280_pressure;Samples;Min_cycle;Max_cycle;Signal;HPM_P1;HPM_P2
2023/04/18 00:00:12;;;;;;;8.33;1.80;;;;;;;15.06;nan;100627.81;4820796;29;20487;-92
2023/04/18 00:02:44;;;;;;;8.50;1.73;;;;;;;15.03;nan;100622.75;4846374;29;20466;-92
2023/04/18 00:05:37;;;;;;;9.30;2.10;;;;;;;14.95;nan;100630.47;4846914;29;20503;-92
2023/04/18 00:08:41;;;;;;;17.37;2.13;;;;;;;14.87;nan;100628.81;4845796;29;20463;-92
2023/04/18 00:11:25;;;;;;;6.83;2.00;;;;;;;14.66;nan;100609.97;4861220;29;20467;-92
2023/04/18 00:17:34;;;;;;;9.67;2.00;;;;;;;14.58;nan;100618.50;4864669;29;20527;-92
2023/04/18 00:20:44;;;;;;;5.60;1.60;;;;;;;14.50;nan;100623.19;4830210;29;20468;-93
2023/04/18 00:23:27;;;;;;;8.50;1.47;;;;;;;14.44;nan;100626.81;4846473;29;20470;-92
2023/04/18 00:26:03;;;;;;;5.10;1.87;;;;;;;14.35;nan;100608.91;4828147;29;20456;-92
2023/04/18 00:28:46;;;;;;;8.90;1.60;;;;;;;14.33;nan;100621.19;4840562;29;20462;-92
2023/04/18 00:31:51;;;;;;;3.50;1.47;;;;;;;14.28;nan;100630.06;4830530;29;20467;-92
2023/04/18 00:35:22;;;;;;;15.97;1.60;;;;;;;14.27;nan;100622.91;4843425;29;20460;-92
2023/04/18 00:37:50;;;;;;;7.67;1.80;;;;;;;14.23;nan;100616.19;4864571;29;20466;-92
2023/04/18 00:44:36;;;;;;;7.10;1.50;;;;;;;14.21;nan;100615.56;4880736;29;20804;-92
2023/04/18 00:47:40;;;;;;;4.60;1.60;;;;;;;14.16;nan;100616.19;4863550;29;20458;-92
2023/04/18 00:50:16;;;;;;;7.10;2.03;;;;;;;14.11;nan;100615.16;4864836;29;20455;-92
2023/04/18 00:52:45;;;;;;;5.20;1.97;;;;;;;14.09;nan;100620.03;4848650;29;20446;-93
2023/04/18 00:55:34;;;;;;;10.63;2.00;;;;;;;14.04;nan;100617.97;4860658;29;20458;-92
2023/04/18 00:58:03;;;;;;;5.27;1.53;;;;;;;13.95;nan;100600.03;4848227;29;20457;-93
2023/04/18 01:00:52;;;;;;;5.27;1.70;;;;;;;14.02;nan;100619.25;4855179;29;20985;-92
2023/04/18 01:03:38;;;;;;;8.57;2.10;;;;;;;14.06;nan;100609.47;4846325;29;20492;-92
2023/04/18 01:06:29;;;;;;;4.03;1.70;;;;;;;14.09;nan;100604.41;4860835;29;20482;-93
2023/04/18 01:09:52;;;;;;;9.10;2.50;;;;;;;14.09;nan;100607.16;4878528;29;20465;-92
2023/04/18 01:12:23;;;;;;;4.83;1.60;;;;;;;14.05;nan;100596.81;4864669;29;20461;-93
2023/04/18 01:14:55;;;;;;;12.63;1.70;;;;;;;13.91;nan;100584.22;4849335;29;20459;-93
2023/04/18 01:17:29;;;;;;;7.27;1.80;;;;;;;13.96;nan;100595.41;4849045;29;20454;-93
2023/04/18 01:20:46;;;;;;;6.27;1.77;;;;;;;13.95;nan;100599.19;4839155;29;20455;-93
2023/04/18 01:30:48;;;;;;;7.43;1.70;;;;;;;13.83;nan;100591.66;4869095;29;20502;-93
2023/04/18 01:33:33;;;;;;;13.40;1.97;;;;;;;13.85;nan;100590.59;4845397;29;20454;-93
2023/04/18 01:36:04;;;;;;;6.97;1.50;;;;;;;13.75;nan;100575.41;4845279;29;20454;-93
2023/04/18 01:38:33;;;;;;;5.70;1.57;;;;;;;13.71;nan;100574.16;4825929;29;20860;-93
2023/04/18 01:44:31;;;;;;;4.87;1.43;;;;;;;13.70;nan;100574.38;4844316;29;20464;-93
2023/04/18 01:50:56;;;;;;;7.13;1.60;;;;;;;13.58;nan;100560.50;4860626;29;20410;-93
2023/04/18 01:57:07;;;;;;;6.07;1.57;;;;;;;13.52;nan;100569.59;4880125;29;20451;-94
2023/04/18 02:00:05;;;;;;;6.77;1.40;;;;;;;13.52;nan;100564.13;4836067;29;20455;-94
2023/04/18 02:02:59;;;;;;;12.10;2.33;;;;;;;13.52;nan;100558.63;4846652;29;20459;-93
2023/04/18 02:05:44;;;;;;;5.90;1.57;;;;;;;13.50;nan;100555.25;4847470;29;20469;-93
2023/04/18 02:08:19;;;;;;;4.13;1.50;;;;;;;13.40;nan;100544.75;4817932;29;20953;-92
2023/04/18 02:11:07;;;;;;;4.73;2.13;;;;;;;13.44;nan;100558.88;4818284;29;20460;-92
2023/04/18 02:13:37;;;;;;;3.73;1.50;;;;;;;13.36;nan;100559.13;4849320;29;20514;-93
2023/04/18 02:16:34;;;;;;;5.13;1.50;;;;;;;13.39;nan;100564.16;4817974;29;20458;-93
2023/04/18 02:22:42;;;;;;;6.80;1.80;;;;;;;13.25;nan;100555.16;4855637;29;20451;-93
2023/04/18 02:25:57;;;;;;;3.17;1.60;;;;;;;13.26;nan;100558.75;4845584;29;20464;-94
2023/04/18 02:32:20;;;;;;;4.07;1.70;;;;;;;13.17;nan;100560.88;4860602;29;20941;-94
2023/04/18 02:35:24;;;;;;;4.77;1.40;;;;;;;13.13;nan;100560.41;4848757;29;20460;-93
2023/04/18 02:38:05;;;;;;;4.03;1.40;;;;;;;13.10;nan;100555.34;4851518;29;20455;-93
2023/04/18 02:40:45;;;;;;;6.50;1.90;;;;;;;13.16;nan;100552.84;4844764;29;20474;-93
2023/04/18 02:47:02;;;;;;;7.63;2.27;;;;;;;13.10;nan;100544.38;4865252;29;20427;-93
2023/04/18 02:49:48;;;;;;;5.00;1.70;;;;;;;13.13;nan;100554.06;4833936;29;21001;-93
2023/04/18 02:52:20;;;;;;;4.43;1.37;;;;;;;13.03;nan;100534.50;4849214;29;20515;-92
2023/04/18 02:54:52;;;;;;;8.50;1.50;;;;;;;13.07;nan;100544.84;4869323;29;20478;-93
2023/04/18 02:57:22;;;;;;;6.10;1.23;;;;;;;13.02;nan;100546.53;4836515;29;20470;-92
2023/04/18 02:59:58;;;;;;;11.20;1.47;;;;;;;12.96;nan;100537.25;4832459;29;20480;-92
2023/04/18 03:02:29;;;;;;;4.07;1.40;;;;;;;13.01;nan;100539.34;4836876;29;20496;-92
2023/04/18 03:12:17;;;;;;;6.63;1.73;;;;;;;12.90;nan;100524.38;4864776;29;20435;-93
2023/04/18 03:15:21;;;;;;;12.00;1.87;;;;;;;12.89;nan;100536.44;4829449;29;20459;-93
2023/04/18 03:21:39;;;;;;;6.87;1.70;;;;;;;12.77;nan;100528.00;4869519;29;20526;-93
2023/04/18 03:25:05;;;;;;;5.33;1.40;;;;;;;12.79;nan;100536.84;4834177;29;20463;-93
2023/04/18 03:28:11;;;;;;;3.97;1.30;;;;;;;12.75;nan;100529.25;4876786;29;20464;-94
2023/04/18 03:30:50;;;;;;;7.13;1.40;;;;;;;12.72;nan;100521.47;4861738;29;20475;-93
2023/04/18 03:34:00;;;;;;;12.93;1.40;;;;;;;12.71;nan;100528.00;4818763;29;20931;-92
2023/04/18 03:37:18;;;;;;;5.53;1.47;;;;;;;12.71;nan;100520.63;4847640;29;20801;-93
2023/04/18 03:43:48;;;;;;;7.73;1.40;;;;;;;12.64;nan;100499.75;4864074;29;20438;-93
2023/04/18 03:46:32;;;;;;;5.90;1.80;;;;;;;12.72;nan;100514.06;4832510;29;20471;-93
2023/04/18 03:49:12;;;;;;;3.67;1.53;;;;;;;12.71;nan;100508.81;4832057;29;20459;-92
2023/04/18 03:55:39;;;;;;;7.23;1.37;;;;;;;12.65;nan;100509.69;4863780;29;20507;-93
2023/04/18 03:58:23;;;;;;;6.73;1.47;;;;;;;12.63;nan;100515.38;4847514;29;20878;-93
2023/04/18 04:01:02;;;;;;;5.37;1.70;;;;;;;12.52;nan;100485.84;4829295;29;20452;-93
2023/04/18 04:04:00;;;;;;;6.33;1.60;;;;;;;12.63;nan;100509.88;4817656;29;20809;-93
2023/04/18 04:10:18;;;;;;;3.53;1.10;;;;;;;12.58;nan;100503.34;4854959;29;20459;-93
2023/04/18 04:16:50;;;;;;;3.23;1.47;;;;;;;12.32;nan;100480.38;4845243;29;20436;-93
2023/04/18 04:19:21;;;;;;;2.03;1.20;;;;;;;12.41;nan;100498.31;4832279;29;20470;-91
2023/04/18 04:21:50;;;;;;;2.60;1.23;;;;;;;12.43;nan;100504.44;4828646;29;20504;-92
2023/04/18 04:24:59;;;;;;;4.73;1.10;;;;;;;12.41;nan;100503.78;4813403;29;20448;-93
2023/04/18 04:31:20;;;;;;;4.57;1.20;;;;;;;12.39;nan;100511.38;4847607;29;20467;-94
2023/04/18 04:34:24;;;;;;;4.63;1.23;;;;;;;12.38;nan;100503.38;4845503;29;20459;-93
2023/04/18 04:37:35;;;;;;;7.13;1.57;;;;;;;12.33;nan;100497.66;4832121;29;20462;-93
2023/04/18 04:40:10;;;;;;;4.10;1.40;;;;;;;12.24;nan;100494.31;4869116;29;20843;-92
2023/04/18 04:43:03;;;;;;;6.23;1.37;;;;;;;12.27;nan;100499.38;4868668;29;20844;-92
2023/04/18 04:45:40;;;;;;;5.57;1.60;;;;;;;12.26;nan;100494.94;4865177;29;20458;-93
2023/04/18 04:48:20;;;;;;;6.07;1.57;;;;;;;12.29;nan;100494.53;4850577;29;20442;-94
2023/04/18 04:50:59;;;;;;;10.47;2.43;;;;;;;12.20;nan;100468.38;4849346;29;20458;-94
2023/04/18 04:53:39;;;;;;;4.33;1.07;;;;;;;12.29;nan;100499.16;4835434;29;20458;-93
2023/04/18 04:56:14;;;;;;;6.77;1.40;;;;;;;12.21;nan;100486.50;4819540;29;20523;-92
2023/04/18 05:02:24;;;;;;;4.83;1.23;;;;;;;12.15;nan;100490.09;4881481;29;20570;-93
2023/04/18 05:12:45;;;;;;;8.70;1.23;;;;;;;12.04;nan;100498.94;4868757;29;20467;-93
2023/04/18 05:15:45;;;;;;;3.60;1.43;;;;;;;12.03;nan;100492.63;4864198;29;20474;-94
2023/04/18 05:22:19;;;;;;;5.50;2.33;;;;;;;11.85;nan;100475.13;4873038;29;20498;-93
2023/04/18 05:24:52;;;;;;;6.40;1.87;;;;;;;11.94;nan;100487.53;4842090;29;20469;-92
2023/04/18 05:27:59;;;;;;;19.27;3.70;;;;;;;11.98;nan;100488.81;4850214;29;20462;-93
2023/04/18 05:31:02;;;;;;;3.77;1.43;;;;;;;11.98;nan;100488.81;4845006;29;20467;-93
2023/04/18 05:37:17;;;;;;;10.13;1.40;;;;;;;11.99;nan;100482.28;4880793;29;20526;-94
2023/04/18 05:44:09;;;;;;;5.03;1.07;;;;;;;11.99;nan;100488.59;4862320;29;20804;-94
2023/04/18 05:50:24;;;;;;;4.90;1.57;;;;;;;11.97;nan;100498.09;4843799;29;20501;-93
2023/04/18 05:53:25;;;;;;;4.83;1.43;;;;;;;11.96;nan;100499.13;4826862;29;20459;-92
2023/04/18 05:56:18;;;;;;;7.73;1.37;;;;;;;11.94;nan;100504.81;4858004;29;20475;-94
2023/04/18 05:59:04;;;;;;;5.30;1.20;;;;;;;11.91;nan;100504.41;4842759;29;20457;-92
2023/04/18 06:01:35;;;;;;;4.63;1.30;;;;;;;11.90;nan;100500.00;4829245;29;20491;-94
2023/04/18 06:04:25;;;;;;;4.50;1.63;;;;;;;11.88;nan;100507.56;4814941;29;20459;-93
2023/04/18 06:07:06;;;;;;;8.23;2.33;;;;;;;11.87;nan;100508.63;4840289;29;20464;-94
2023/04/18 06:09:45;;;;;;;8.37;1.90;;;;;;;11.86;nan;100502.28;4829638;29;20837;-93
2023/04/18 06:12:45;;;;;;;5.23;1.13;;;;;;;11.88;nan;100502.09;4827302;29;20476;-93
2023/04/18 06:15:16;;;;;;;6.90;1.83;;;;;;;11.82;nan;100494.69;4844851;29;20467;-92
2023/04/18 06:21:45;;;;;;;13.23;1.90;;;;;;;11.79;nan;100484.16;4843200;29;20531;-93
2023/04/18 06:24:22;;;;;;;11.40;2.00;;;;;;;11.87;nan;100497.66;4843321;29;20456;-93
2023/04/18 06:27:30;;;;;;;11.70;2.60;;;;;;;11.94;nan;100503.97;4814345;29;20459;-93
2023/04/18 06:33:59;;;;;;;20.07;2.47;;;;;;;11.84;nan;100487.97;4843278;29;20428;-93
2023/04/18 06:37:04;;;;;;;59.27;5.33;;;;;;;11.97;nan;100506.28;4813653;29;20460;-92
2023/04/18 06:39:39;;;;;;;55.87;4.93;;;;;;;11.97;nan;100507.13;4837937;29;20487;-93
2023/04/18 06:42:10;;;;;;;191.63;12.10;;;;;;;11.89;nan;100490.09;4833036;29;20493;-92
2023/04/18 06:45:05;;;;;;;92.87;8.20;;;;;;;12.07;nan;100504.00;4842894;29;20470;-93
2023/04/18 06:47:51;;;;;;;58.77;4.57;;;;;;;12.13;nan;100507.78;4855777;29;20875;-92
2023/04/18 06:50:51;;;;;;;6.80;2.00;;;;;;;12.19;nan;100513.28;4840550;29;20872;-92
2023/04/18 06:53:19;;;;;;;11.40;1.77;;;;;;;12.22;nan;100504.63;4825326;29;20452;-92
2023/04/18 06:56:19;;;;;;;13.73;2.50;;;;;;;12.28;nan;100501.06;4815341;29;20907;-94
2023/04/18 06:59:22;;;;;;;17.13;2.33;;;;;;;12.47;nan;100506.75;4828480;29;20467;-94
2023/04/18 07:02:15;;;;;;;16.43;1.50;;;;;;;12.56;nan;100519.16;4829100;29;20479;-94
2023/04/18 07:04:49;;;;;;;62.80;6.17;;;;;;;12.60;nan;100501.25;4829526;29;20919;-94
2023/04/18 07:07:54;;;;;;;41.53;9.20;;;;;;;12.75;nan;100512.81;4802293;29;20836;-92
2023/04/18 07:10:36;;;;;;;21.40;5.17;;;;;;;12.90;nan;100509.81;4807929;29;20466;-93
2023/04/18 07:16:50;;;;;;;66.07;7.07;;;;;;;13.21;nan;100500.91;4825654;29;20825;-91
2023/04/18 07:19:18;;;;;;;39.93;4.80;;;;;;;13.35;nan;100499.78;4824666;29;20445;-92
2023/04/18 07:21:47;;;;;;;56.83;4.70;;;;;;;13.52;nan;100514.69;4887829;23;20868;-91
2023/04/18 07:24:16;;;;;;;23.97;3.17;;;;;;;13.54;nan;100498.84;4848296;29;20460;-92
2023/04/18 07:27:00;;;;;;;26.40;3.10;;;;;;;13.81;nan;100505.88;4827489;29;20816;-93
2023/04/18 07:33:16;;;;;;;16.83;2.07;;;;;;;14.15;nan;100492.75;4846447;29;20439;-94
2023/04/18 07:36:11;;;;;;;35.87;2.93;;;;;;;14.35;nan;100504.41;4832237;29;20451;-92
2023/04/18 07:38:51;;;;;;;16.93;2.03;;;;;;;14.45;nan;100485.53;4844508;29;20456;-93
2023/04/18 07:41:29;;;;;;;13.43;1.70;;;;;;;14.73;nan;100490.56;4817521;29;20484;-94
2023/04/18 07:51:25;;;;;;;8.30;0.90;;;;;;;15.74;nan;100503.75;4861334;29;20492;-93
2023/04/18 07:54:04;;;;;;;9.00;2.07;;;;;;;15.93;nan;100495.44;4848143;29;20499;-93
2023/04/18 07:56:53;;;;;;;5.73;1.47;;;;;;;16.23;nan;100507.25;4834929;29;20448;-92
2023/04/18 07:59:22;;;;;;;7.33;1.67;;;;;;;16.52;nan;100505.50;4831871;29;20479;-95
2023/04/18 08:02:32;;;;;;;4.10;1.20;;;;;;;16.78;nan;100506.94;4847484;29;20997;-94
2023/04/18 08:05:30;;;;;;;12.77;1.20;;;;;;;17.03;nan;100506.69;4845376;29;20820;-93
2023/04/18 08:08:11;;;;;;;7.80;1.00;;;;;;;17.19;nan;100514.22;4860620;29;20470;-94
2023/04/18 08:10:53;;;;;;;3.33;1.00;;;;;;;17.35;nan;100516.22;4848686;29;20977;-92
2023/04/18 08:13:23;;;;;;;6.63;1.40;;;;;;;17.49;nan;100508.53;4846640;29;20550;-94
2023/04/18 08:16:04;;;;;;;8.37;1.27;;;;;;;17.65;nan;100510.53;4831999;29;20470;-92
2023/04/18 08:19:00;;;;;;;5.43;1.30;;;;;;;17.81;nan;100523.56;4847312;29;20463;-91
2023/04/18 08:21:28;;;;;;;9.73;1.33;;;;;;;17.97;nan;100519.16;4846663;29;20464;-92
2023/04/18 08:24:03;;;;;;;9.90;1.20;;;;;;;18.04;nan;100510.72;4832063;29;20970;-92
2023/04/18 08:26:33;;;;;;;9.80;1.80;;;;;;;18.24;nan;100531.31;4828779;29;20463;-89
2023/04/18 08:32:43;;;;;;;17.10;4.00;;;;;;;18.51;nan;100514.84;4863764;29;20998;-95
2023/04/18 08:35:11;;;;;;;11.70;2.90;;;;;;;18.71;nan;100531.00;4816800;29;20455;-90
2023/04/18 08:38:07;;;;;;;12.10;3.40;;;;;;;18.82;nan;100543.94;4817380;29;20466;-96
2023/04/18 08:40:51;;;;;;;11.80;3.23;;;;;;;18.94;nan;100546.59;4845904;29;20508;-96
2023/04/18 08:43:30;;;;;;;8.20;1.93;;;;;;;18.95;nan;100529.72;4813411;29;20850;-93
2023/04/18 08:45:58;;;;;;;7.40;1.37;;;;;;;19.07;nan;100546.22;4860727;29;20463;-92
2023/04/18 08:48:27;;;;;;;7.47;2.17;;;;;;;19.18;nan;100542.53;4834497;29;20472;-90
2023/04/18 08:51:00;;;;;;;5.50;2.07;;;;;;;19.32;nan;100548.53;4816279;29;20455;-90
2023/04/18 08:53:34;;;;;;;12.83;1.47;;;;;;;19.40;nan;100534.22;4828320;29;20531;-91
2023/04/18 08:56:09;;;;;;;5.70;1.30;;;;;;;19.53;nan;100541.34;4859617;29;20448;-92
2023/04/18 08:59:01;;;;;;;8.93;2.20;;;;;;;19.64;nan;100543.97;4846431;29;21018;-92
2023/04/18 09:02:01;;;;;;;11.03;1.70;;;;;;;19.76;nan;100546.63;4861600;29;20458;-93
2023/04/18 09:07:45;;;;;;;12.67;2.67;;;;;;;20.00;nan;100555.50;4843944;29;20460;-92
2023/04/18 09:10:52;;;;;;;13.03;2.70;;;;;;;20.15;nan;100557.59;4832305;29;20420;-93
2023/04/18 09:13:52;;;;;;;11.73;2.13;;;;;;;20.28;nan;100557.16;4769519;30;20451;-93
2023/04/18 09:16:30;;;;;;;7.07;2.33;;;;;;;20.35;nan;100552.25;4787718;30;20459;-94
2023/04/18 09:22:20;;;;;;;11.33;1.80;;;;;;;20.69;nan;100550.91;4702339;30;20545;-93
2023/04/18 09:25:27;;;;;;;16.83;2.60;;;;;;;20.82;nan;100551.56;4702491;30;20954;-94
2023/04/18 09:28:25;;;;;;;6.50;1.50;;;;;;;20.93;nan;100554.16;4701186;30;20560;-94
2023/04/18 09:38:49;;;;;;;6.67;2.00;;;;;;;21.52;nan;100551.22;4771139;29;20527;-94
2023/04/18 09:41:22;;;;;;;7.80;1.30;;;;;;;21.66;nan;100551.53;4772937;30;20467;-94
2023/04/18 09:44:18;;;;;;;14.93;2.10;;;;;;;21.71;nan;100535.72;4743577;30;20587;-94
2023/04/18 09:47:04;;;;;;;8.67;1.90;;;;;;;21.94;nan;100548.28;4817535;29;20875;-94
2023/04/18 09:49:38;;;;;;;5.63;1.33;;;;;;;22.06;nan;100536.94;4845021;29;20468;-94
2023/04/18 09:55:26;;;;;;;6.43;1.27;;;;;;;22.33;nan;100539.47;4842827;29;20472;-89
2023/04/18 09:57:53;;;;;;;20.00;2.10;;;;;;;22.43;nan;100539.50;4840815;29;20532;-90
2023/04/18 10:00:22;;;;;;;9.00;2.03;;;;;;;22.58;nan;100542.28;4842678;29;20483;-91
2023/04/18 10:02:57;;;;;;;10.83;3.17;;;;;;;22.73;nan;100541.44;4825183;29;20491;-90
2023/04/18 10:05:27;;;;;;;19.43;3.53;;;;;;;22.82;nan;100534.25;4814727;29;20498;-89
2023/04/18 10:07:55;;;;;;;31.13;6.20;;;;;;;22.94;nan;100545.09;4811195;29;20460;-91
2023/04/18 10:10:25;;;;;;;23.37;7.97;;;;;;;23.06;nan;100542.88;4818027;29;20835;-91
2023/04/18 10:12:55;;;;;;;8.10;3.53;;;;;;;23.16;nan;100534.47;4814948;29;20459;-90
2023/04/18 10:15:28;;;;;;;6.80;2.27;;;;;;;23.31;nan;100540.00;4829989;29;20460;-90
2023/04/18 10:18:23;;;;;;;14.03;3.07;;;;;;;23.48;nan;100538.81;4845027;29;20474;-90
2023/04/18 10:20:59;;;;;;;4.80;1.40;;;;;;;23.60;nan;100529.06;4844285;29;20468;-90
2023/04/18 10:23:30;;;;;;;12.73;4.20;;;;;;;23.78;nan;100533.16;4800037;29;20490;-90
2023/04/18 10:26:06;;;;;;;12.40;2.30;;;;;;;23.92;nan;100528.59;4842270;29;20456;-91
2023/04/18 10:28:55;;;;;;;14.87;2.60;;;;;;;24.11;nan;100532.41;4839477;29;20469;-91
2023/04/18 10:31:24;;;;;;;10.23;2.30;;;;;;;24.25;nan;100521.44;4862444;29;20984;-90
2023/04/18 10:33:54;;;;;;;13.60;3.20;;;;;;;24.41;nan;100522.19;4829737;29;20809;-90
2023/04/18 10:36:31;;;;;;;21.20;4.40;;;;;;;24.60;nan;100528.75;4827292;29;20463;-91
2023/04/18 10:39:22;;;;;;;7.50;1.70;;;;;;;24.79;nan;100521.28;4829913;29;21021;-90
2023/04/18 10:41:52;;;;;;;10.17;2.07;;;;;;;24.90;nan;100516.44;4841765;29;20482;-91
2023/04/18 10:44:21;;;;;;;6.50;2.13;;;;;;;25.08;nan;100534.47;4859753;29;20490;-90
2023/04/18 10:46:50;;;;;;;13.00;1.87;;;;;;;25.22;nan;100534.59;4827694;29;20465;-90
2023/04/18 10:49:23;;;;;;;13.90;1.80;;;;;;;25.26;nan;100518.88;4842907;29;20459;-90
2023/04/18 10:52:00;;;;;;;8.93;2.50;;;;;;;25.43;nan;100524.81;4832948;29;20839;-90
2023/04/18 10:54:31;;;;;;;8.83;2.70;;;;;;;25.54;nan;100525.56;4760229;30;20879;-91
2023/04/18 10:57:02;;;;;;;5.80;2.10;;;;;;;25.59;nan;100523.53;4773731;30;20467;-90
2023/04/18 10:59:30;;;;;;;12.37;2.93;;;;;;;;;;4774619;30;20474;-90
2023/04/18 11:02:15;;;;;;;12.07;2.40;;;;;;;;;;4789262;29;20461;-91
2023/04/18 11:04:52;;;;;;;22.73;9.53;;;;;;;;;;4789146;29;20999;-90
2023/04/18 11:07:35;;;;;;;24.30;11.47;;;;;;;;;;4759629;30;20454;-93
2023/04/18 11:10:05;;;;;;;45.17;25.80;;;;;;;;;;4789357;29;20554;-88
2023/04/18 11:12:32;;;;;;;53.20;26.00;;;;;;;;;;4821470;29;20463;-91
2023/04/18 11:15:08;;;;;;;31.90;17.73;;;;;;;;;;4847574;29;20961;-91
2023/04/18 11:17:38;;;;;;;24.23;9.30;;;;;;;;;;4847367;29;20516;-91
2023/04/18 11:20:13;;;;;;;17.53;4.73;;;;;;;;;;4832539;29;20451;-91
2023/04/18 11:22:49;;;;;;;17.03;4.10;;;;;;;;;;4847672;29;20487;-91
2023/04/18 11:25:17;;;;;;;16.07;3.87;;;;;;;;;;4879547;29;20446;-91
2023/04/18 11:27:47;;;;;;;9.00;3.20;;;;;;;;;;4850494;29;20435;-90
2023/04/18 11:30:15;;;;;;;8.23;3.00;;;;;;;;;;4836024;29;20534;-92
2023/04/18 11:32:44;;;;;;;14.00;2.03;;;;;;;;;;4814676;29;20467;-91
2023/04/18 11:35:14;;;;;;;10.40;2.40;;;;;;;;;;4835399;29;20477;-90
2023/04/18 11:37:44;;;;;;;7.87;1.80;;;;;;;;;;4854929;29;20471;-91
2023/04/18 11:40:20;;;;;;;7.97;1.87;;;;;;;;;;4831436;29;20481;-91
2023/04/18 11:42:48;;;;;;;9.80;1.97;;;;;;;;;;4846383;29;20518;-90
2023/04/18 11:45:15;;;;;;;9.27;2.23;;;;;;;;;;4832215;29;20439;-90
2023/04/18 11:47:46;;;;;;;4.57;1.57;;;;;;;;;;4831117;29;20934;-91
2023/04/18 11:50:14;;;;;;;12.40;2.00;;;;;;;;;;4860685;29;20448;-90
2023/04/18 11:52:43;;;;;;;7.23;1.90;;;;;;;;;;4854041;29;20496;-91
2023/04/18 11:55:12;;;;;;;9.70;1.43;;;;;;;;;;4846470;29;20452;-90
2023/04/18 11:57:40;;;;;;;11.23;2.17;;;;;;;;;;4845717;29;20488;-90
2023/04/18 12:00:11;;;;;;;5.93;1.90;;;;;;;;;;4834706;29;20457;-90
2023/04/18 12:02:39;;;;;;;8.07;2.40;;;;;;;;;;4852791;29;20464;-90
2023/04/18 12:05:07;;;;;;;7.20;1.77;;;;;;;;;;4830933;29;20841;-90
2023/04/18 12:07:41;;;;;;;11.23;1.17;;;;;;;;;;4829424;29;20443;-90
2023/04/18 12:10:24;;;;;;;9.90;1.80;;;;;;;;;;4861189;29;20534;-90
2023/04/18 12:12:53;;;;;;;10.73;2.20;;;;;;;;;;4863066;29;20450;-90
2023/04/18 12:15:22;;;;;;;19.03;2.13;;;;;;;;;;4862970;29;20471;-90
2023/04/18 12:17:50;;;;;;;6.47;1.30;;;;;;;;;;4848657;29;20450;-90
2023/04/18 12:20:23;;;;;;;13.27;1.73;;;;;;;;;;4849451;29;20455;-91
2023/04/18 12:22:53;;;;;;;32.53;2.83;;;;;;;;;;4842480;29;20480;-89
2023/04/18 12:25:22;;;;;;;25.53;2.53;;;;;;;;;;4851408;29;20848;-87
2023/04/18 12:27:56;;;;;;;15.27;1.37;;;;;;;;;;4831391;29;20463;-89
2023/04/18 12:30:25;;;;;;;5.97;1.23;;;;;;;;;;4857646;29;20452;-90
2023/04/18 12:33:00;;;;;;;4.80;1.33;;;;;;;;;;4831603;29;20448;-90
2023/04/18 12:35:28;;;;;;;16.43;1.73;;;;;;;;;;4831242;29;20455;-90
2023/04/18 12:37:56;;;;;;;4.27;1.50;;;;;;;;;;4831152;29;20475;-90
2023/04/18 12:40:25;;;;;;;4.80;1.10;;;;;;;;;;4831176;29;20962;-90
2023/04/18 12:42:54;;;;;;;5.70;1.30;;;;;;;;;;4831159;29;20455;-90
2023/04/18 12:45:22;;;;;;;6.97;2.03;;;;;;;;;;4830638;29;20458;-90
2023/04/18 12:47:50;;;;;;;8.43;1.13;;;;;;;;;;4830022;29;20555;-90
2023/04/18 12:50:22;;;;;;;10.37;1.90;;;;;;;;;;4830492;29;20473;-90
2023/04/18 12:52:50;;;;;;;7.60;1.20;;;;;;;;;;4830984;29;20448;-90
2023/04/18 12:55:18;;;;;;;5.70;1.00;;;;;;;;;;4831040;29;20515;-89
2023/04/18 12:57:49;;;;;;;7.80;1.70;;;;;;;;;;4831495;29;20532;-90
2023/04/18 13:00:17;;;;;;;9.47;1.50;;;;;;;;;;4845587;29;20484;-90
2023/04/18 13:02:45;;;;;;;5.20;1.00;;;;;;;;;;4830932;29;20574;-90
2023/04/18 13:05:14;;;;;;;17.83;1.90;;;;;;;;;;4830567;29;20447;-90
2023/04/18 13:07:43;;;;;;;4.03;1.03;;;;;;;;;;4846027;29;20957;-89
2023/04/18 13:10:13;;;;;;;5.90;1.30;;;;;;;;;;4845114;29;20466;-90
2023/04/18 13:12:41;;;;;;;9.10;1.40;;;;;;;;;;4861702;29;20444;-90
2023/04/18 13:15:08;;;;;;;6.87;1.13;;;;;;;;;;4830751;29;20459;-90
2023/04/18 13:17:36;;;;;;;8.67;1.43;;;;;;;;;;4830438;29;20455;-90
2023/04/18 13:20:06;;;;;;;7.97;1.50;;;;;;;;;;4830287;29;20550;-90
2023/04/18 13:22:33;;;;;;;10.23;1.60;;;;;;;;;;4829843;29;20479;-90
2023/04/18 13:25:02;;;;;;;3.07;1.03;;;;;;;;;;4845290;29;20495;-90
2023/04/18 13:27:30;;;;;;;6.23;1.40;;;;;;;;;;4831023;29;20448;-90
2023/04/18 13:29:57;;;;;;;5.13;0.93;;;;;;;;;;4830146;29;20459;-90
2023/04/18 13:32:25;;;;;;;12.97;1.30;;;;;;;;;;4830677;29;20440;-90
2023/04/18 13:34:54;;;;;;;5.43;1.20;;;;;;;;;;4830020;29;20452;-90
2023/04/18 13:37:22;;;;;;;16.93;2.20;;;;;;;;;;4830400;29;20547;-90
2023/04/18 13:39:50;;;;;;;15.80;1.33;;;;;;;;;;4830323;29;20509;-90
2023/04/18 13:42:18;;;;;;;4.50;1.20;;;;;;;;;;4829816;29;20463;-90
2023/04/18 13:44:47;;;;;;;9.97;2.13;;;;;;;;;;4844645;29;20865;-90
2023/04/18 13:47:15;;;;;;;7.13;1.17;;;;;;;;;;4845244;29;20542;-90
2023/04/18 13:49:42;;;;;;;16.53;1.37;;;;;;;;;;4829851;29;20448;-90
2023/04/18 13:52:10;;;;;;;5.23;1.30;;;;;;;;;;4829394;29;20484;-90
2023/04/18 13:54:37;;;;;;;8.00;1.43;;;;;;;;;;4830539;29;20494;-90
2023/04/18 13:57:10;;;;;;;5.30;1.07;;;;;;;;;;4829849;29;20968;-90
2023/04/18 13:59:41;;;;;;;6.03;1.23;;;;;;;;;;4830672;29;20431;-90
2023/04/18 14:02:09;;;;;;;4.60;1.00;;;;;;;;;;4844582;29;20443;-90
2023/04/18 14:04:38;;;;;;;3.23;0.80;;;;;;;;;;4830022;29;20499;-90
2023/04/18 14:07:07;;;;;;;5.00;1.50;;;;;;;;;;4844425;29;20462;-90
2023/04/18 14:09:35;;;;;;;7.53;1.10;;;;;;;;;;4830196;29;20923;-91
2023/04/18 14:12:02;;;;;;;4.63;1.10;;;;;;;;;;4829833;29;20546;-90
2023/04/18 14:14:31;;;;;;;10.73;1.27;;;;;;;;;;4829657;29;20492;-90
2023/04/18 14:16:59;;;;;;;6.00;1.40;;;;;;;;;;4860759;29;20470;-89
2023/04/18 14:19:26;;;;;;;4.77;1.23;;;;;;;;;;4844681;29;20490;-90
2023/04/18 14:21:54;;;;;;;6.30;1.30;;;;;;;;;;4829840;29;20450;-90
2023/04/18 14:24:23;;;;;;;8.43;1.07;;;;;;;;;;4829827;29;21020;-90
2023/04/18 14:27:00;;;;;;;3.77;1.00;;;;;;;;;;4829593;29;20467;-90
2023/04/18 14:29:28;;;;;;;3.47;0.93;;;;;;;;;;4826078;29;20456;-89
2023/04/18 14:31:55;;;;;;;4.87;1.50;;;;;;;;;;4841375;29;20486;-90
2023/04/18 14:34:24;;;;;;;8.67;1.33;;;;;;;;;;4826336;29;21022;-89
2023/04/18 14:36:52;;;;;;;7.20;1.20;;;;;;;;;;4826741;29;20436;-90
2023/04/18 14:39:20;;;;;;;6.17;1.33;;;;;;;;;;4826366;29;20527;-90
2023/04/18 14:41:48;;;;;;;13.70;1.60;;;;;;;;;;4826399;29;20463;-90
2023/04/18 14:44:16;;;;;;;2.60;1.00;;;;;;;;;;4840851;29;20586;-90
2023/04/18 14:46:44;;;;;;;7.10;1.37;;;;;;;;;;4826536;29;20955;-90
2023/04/18 14:49:12;;;;;;;6.60;1.27;;;;;;;;;;4841336;29;20452;-90
2023/04/18 14:51:41;;;;;;;8.60;1.67;;;;;;;;;;4826082;29;20856;-90
2023/04/18 14:54:09;;;;;;;7.87;2.10;;;;;;;;;;4826273;29;20480;-90
2023/04/18 14:56:36;;;;;;;10.00;1.40;;;;;;;;;;4825826;29;20798;-89
2023/04/18 14:59:04;;;;;;;6.63;1.23;;;;;;;;;;4826302;29;20448;-90
2023/04/18 15:01:32;;;;;;;5.20;1.40;;;;;;;;;;4826211;29;20445;-90
2023/04/18 15:04:00;;;;;;;9.10;1.53;;;;;;;;;;4825922;29;20500;-90
2023/04/18 15:06:28;;;;;;;8.70;1.60;;;;;;;;;;4826455;29;20943;-90
2023/04/18 15:08:56;;;;;;;11.90;1.50;;;;;;;;;;4840940;29;20870;-90
2023/04/18 15:11:26;;;;;;;6.20;1.70;;;;;;;;;;4841387;29;20458;-90
2023/04/18 15:13:55;;;;;;;8.40;1.40;;;;;;;;;;4845375;29;20987;-90
2023/04/18 15:16:23;;;;;;;8.37;1.17;;;;;;;;;;4844454;29;20967;-90
2023/04/18 15:18:52;;;;;;;7.07;2.20;;;;;;;;;;4828860;29;20558;-90
2023/04/18 15:21:21;;;;;;;7.00;1.70;;;;;;;;;;4828563;29;20547;-89
2023/04/18 15:23:53;;;;;;;3.43;1.10;;;;;;;;;;4844893;29;20494;-90
2023/04/18 15:26:21;;;;;;;9.53;1.80;;;;;;;;;;4843749;29;20462;-90
2023/04/18 15:28:49;;;;;;;16.70;1.80;;;;;;;;;;4844318;29;20432;-90
2023/04/18 15:31:17;;;;;;;7.40;1.33;;;;;;;;;;4829106;29;20444;-89
2023/04/18 15:33:45;;;;;;;10.63;1.60;;;;;;;;;;4829021;29;20509;-90
2023/04/18 15:36:13;;;;;;;8.37;1.50;;;;;;;;;;4829031;29;20505;-91
2023/04/18 15:38:42;;;;;;;5.80;1.47;;;;;;;;;;4828492;29;20444;-90
2023/04/18 15:41:10;;;;;;;9.23;1.40;;;;;;;;;;4828543;29;20453;-89
2023/04/18 15:43:40;;;;;;;7.83;1.30;;;;;;;;;;4843484;29;20464;-90
2023/04/18 15:46:08;;;;;;;7.27;1.50;;;;;;;;;;4828723;29;20464;-90
2023/04/18 15:48:36;;;;;;;10.53;1.20;;;;;;;;;;4844022;29;20455;-90